ADDS METAR Data INFO
IDs: Format: Raw Decoded Include TAF

Data at: 2254 UTC 22 Jun 2018

KCEC 222156Z AUTO 35015G23KT 10SM CLR 16/11 A3008 RMK AO2 SLP185 T01610111
KCEC 222056Z AUTO 34014G24KT 10SM CLR 16/11 A3009 RMK AO2 PK WND 34027/2036 SLP191 T01610111 58015
KCEC 221956Z AUTO 34017G25KT 10SM CLR 16/11 A3011 RMK AO2 SLP196 T01610111
KCEC 221856Z AUTO 33010KT 10SM CLR 16/12 A3012 RMK AO2 SLP201 T01560117
KCEC 221756Z AUTO 00000KT 10SM FEW007 14/11 A3014 RMK AO2 SLP206 T01390111 10144 20122 58001
KCEC 221734Z AUTO VRB06KT 10SM SCT006 14/12 A3014 RMK AO2 T01390117
KCEC 221656Z AUTO 32005KT 10SM OVC005 14/12 A3015 RMK AO2 SLP209 T01390117
KCEC 221556Z AUTO 31006KT 10SM OVC005 13/12 A3015 RMK AO2 SLP209 T01280117
KCEC 221514Z AUTO 00000KT 10SM OVC005 13/12 A3013 RMK AO2 T01330117
KCEC 221456Z AUTO 00000KT 10SM OVC004 13/12 A3014 RMK AO2 SLP206 T01280117 53004
KCEC 221408Z AUTO 32004KT 10SM OVC004 12/11 A3014 RMK AO2 T01220111
KCEC 221356Z AUTO 03004KT 10SM OVC005 12/11 A3013 RMK AO2 SLP205 T01220111
KCEC 221256Z AUTO 00000KT 8SM OVC006 12/11 A3013 RMK AO2 SLP203 T01220111
KCEC 221156Z AUTO 14003KT 10SM OVC006 12/11 A3013 RMK AO2 SLP202 T01220111 10122 20100 58001
KCEC 221056Z AUTO 13005KT 10SM OVC007 12/11 A3013 RMK AO2 SLP204 T01220111
KCEC 220956Z AUTO 17006KT 10SM OVC007 12/11 A3013 RMK AO2 SLP203 T01220111
KCEC 220915Z AUTO 17006KT 10SM BKN006 12/11 A3013 RMK AO2 T01170106
KCEC 220906Z AUTO 16006KT 10SM SCT006 12/10 A3013 RMK AO2 T01170100
KCEC 220856Z AUTO 15006KT 10SM CLR 11/10 A3013 RMK AO2 SLP203 T01110100 50001
KCEC 220756Z AUTO 14005KT 10SM CLR 11/09 A3013 RMK AO2 SLP204 T01060089 401720100
KCEC 220656Z AUTO 01003KT 10SM CLR 11/10 A3014 RMK AO2 SLP205 T01110100
KCEC 220556Z AUTO 00000KT 10SM CLR 12/10 A3013 RMK AO2 SLP202 T01170100 10161 20117 56006
KCEC 220456Z AUTO 33006KT 10SM CLR 12/11 A3013 RMK AO2 SLP202 T01220106
KCEC 220356Z AUTO 32010KT 10SM CLR 13/11 A3013 RMK AO2 SLP204 T01280106
KCEC 220256Z AUTO 32007KT 10SM FEW005 14/11 A3015 RMK AO2 SLP209 T01390111 53000
KCEC 220156Z AUTO 32006KT 10SM CLR 15/11 A3014 RMK AO2 SLP207 T01500111
KCEC 220056Z AUTO 33008KT 10SM CLR 16/12 A3013 RMK AO2 SLP204 T01560122
KCEC 212356Z AUTO 31007KT 10SM CLR 16/12 A3014 RMK AO2 SLP208 T01610122 10172 20150 58007
KCEC 212256Z AUTO 32011KT 10SM CLR 17/12 A3016 RMK AO2 SLP213 T01670122
KCEC 212220Z AUTO 33010KT 10SM FEW024 17/12 A3017 RMK AO2 T01720122
KCEC 212156Z AUTO 33011KT 10SM BKN022 17/12 A3017 RMK AO2 SLP218 T01670122
KCEC 212129Z AUTO 33011KT 10SM BKN020 17/12 A3017 RMK AO2 T01670117
KCEC 212056Z AUTO 32011KT 10SM CLR 17/12 A3017 RMK AO2 SLP215 T01670117 53008
KCEC 211956Z AUTO 34009KT 10SM CLR 16/12 A3014 RMK AO2 SLP207 T01610117
KCEC 211904Z AUTO 32007KT 10SM SCT017 16/11 A3014 RMK AO2 T01560111
KCEC 211856Z AUTO 34005KT 10SM BKN017 16/11 A3014 RMK AO2 SLP208 T01560111
KCEC 211756Z AUTO 32006KT 10SM OVC016 16/11 A3014 RMK AO2 SLP207 T01560111 10156 20122 58002
KCEC 211706Z AUTO 35006KT 10SM OVC015 14/11 A3015 RMK AO2 T01440111
KCEC 211656Z AUTO 35006KT 10SM OVC014 14/12 A3015 RMK AO2 SLP212 T01390117
KCEC 211556Z AUTO 33005KT 10SM OVC012 13/11 A3016 RMK AO2 SLP215 T01330111
KCEC 211456Z AUTO 32006KT 10SM OVC013 13/11 A3015 RMK AO2 SLP209 T01280106 53009
KCEC 211356Z AUTO 35005KT 10SM OVC013 13/11 A3013 RMK AO2 SLP204 T01280106
KCEC 211256Z AUTO 35004KT 10SM OVC013 12/11 A3012 RMK AO2 SLP201 T01220106
KCEC 211226Z AUTO 00000KT 10SM OVC014 12/11 A3012 RMK AO2 T01220111
KCEC 211156Z AUTO 00000KT 10SM OVC015 12/12 A3012 RMK AO2 SLP200 T01220117 10128 20122 51003
KCEC 211056Z AUTO 35003KT 10SM OVC016 13/12 A3012 RMK AO2 SLP199 T01280117